Skip Navigation

Christman Field Latest Observations

Switch to metric unitsOther observation timesWeekly graphs

Date Time
MST
Temp
°F
RH
%
DewPt
°F
Wind
mph
Dir
°
Gust
mph
Dir
°
Press
in Hg
Solar
W/m^2
Prec
in
2020-03-29 21:00 37.7 51.7 21.5 4.1 30 4.7 28 24.857 0.0 0.00
2020-03-29 20:55 38.6 51.6 22.3 2.3 29 4.2 28 24.857 0.0 0.00
2020-03-29 20:50 39.1 48.9 21.5 0.0 234 0.0 234 24.857 0.0 0.00
2020-03-29 20:45 39.1 49.0 21.6 0.0 234 0.0 233 24.857 0.0 0.00
2020-03-29 20:40 38.2 48.9 20.7 1.4 233 2.6 233 24.856 0.0 0.00
2020-03-29 20:35 38.5 54.8 23.6 4.4 233 5.7 237 24.855 0.0 0.00
2020-03-29 20:30 38.4 51.1 21.9 2.5 237 4.5 235 24.852 0.0 0.00
2020-03-29 20:25 40.6 47.2 22.1 0.7 238 1.4 238 24.850 0.0 0.00
2020-03-29 20:20 40.1 42.2 19.0 0.1 239 0.7 239 24.849 0.0 0.00
2020-03-29 20:15 39.9 46.6 21.1 0.0 238 0.0 238 24.850 0.0 0.00
2020-03-29 20:10 40.1 46.3 21.1 0.0 238 0.0 238 24.851 0.0 0.00
2020-03-29 20:05 40.3 45.1 20.7 0.0 238 0.4 238 24.851 0.0 0.00
2020-03-29 20:00 40.7 45.1 21.1 2.8 238 4.5 239 24.851 0.0 0.00
2020-03-29 19:55 40.8 41.6 19.2 5.0 241 5.7 244 24.848 0.0 0.00
2020-03-29 19:50 39.9 43.4 19.5 4.5 244 6.0 244 24.847 0.0 0.00
2020-03-29 19:45 39.1 45.1 19.6 2.7 232 3.5 232 24.846 0.0 0.00
2020-03-29 19:40 40.0 50.5 23.1 2.3 228 3.4 219 24.843 0.0 0.00
2020-03-29 19:35 41.0 41.7 19.5 3.5 218 4.9 232 24.841 0.0 0.00
2020-03-29 19:30 40.4 42.1 19.2 0.0 211 1.3 211 24.840 0.0 0.00
2020-03-29 19:25 41.4 42.6 20.4 0.0 211 0.0 232 24.839 0.0 0.00
2020-03-29 19:20 43.3 39.7 20.4 0.7 232 1.8 232 24.838 0.0 0.00
2020-03-29 19:15 42.5 37.8 18.5 1.4 232 2.5 232 24.838 0.0 0.00
2020-03-29 19:10 42.5 39.2 19.4 1.8 232 2.5 232 24.836 0.0 0.00
2020-03-29 19:05 43.8 39.5 20.7 1.6 232 2.4 232 24.834 0.0 0.00
2020-03-29 19:00 44.0 37.2 19.6 0.0 217 0.5 217 24.832 0.0 0.00
2020-03-29 18:55 43.3 38.1 19.4 0.0 216 0.0 216 24.830 0.1 0.00
2020-03-29 18:50 42.8 36.0 17.7 0.3 216 1.4 216 24.829 0.2 0.00
2020-03-29 18:45 44.2 34.0 17.6 0.4 216 1.6 216 24.828 0.2 0.00
2020-03-29 18:40 44.9 32.5 17.2 0.9 216 1.8 216 24.825 0.6 0.00
2020-03-29 18:35 45.9 31.5 17.3 2.2 213 3.4 232 24.826 1.4 0.00